createdAt,value
2023-01-17T00:02:19.090Z,86.18
2023-01-17T00:05:05.724Z,85.54
2023-01-17T00:07:52.623Z,86.68
2023-01-17T00:10:23.529Z,87.11
2023-01-17T00:12:56.898Z,87.55
2023-01-17T00:15:26.524Z,86.89
2023-01-17T00:17:55.290Z,86.59
2023-01-17T00:20:43.939Z,87.23
2023-01-17T00:23:39.746Z,87.13
2023-01-17T00:26:13.803Z,87.22
2023-01-17T00:28:43.442Z,87.61
2023-01-17T00:31:12.725Z,87.19
2023-01-17T00:33:41.196Z,87.56
2023-01-17T00:36:09.641Z,87.08
2023-01-17T00:38:39.534Z,87.34
2023-01-17T00:41:10.008Z,87.14
2023-01-17T00:43:56.211Z,86.52
2023-01-17T00:46:42.565Z,85.41
2023-01-17T00:49:29.419Z,85.12
2023-01-17T00:52:16.060Z,84.78
2023-01-17T00:55:02.708Z,84.25
2023-01-17T00:57:49.369Z,83.47
2023-01-17T01:00:38.655Z,84.11
2023-01-17T01:03:30.064Z,83.30
2023-01-17T01:06:16.915Z,83.28
2023-01-17T01:09:03.353Z,82.89
2023-01-17T01:11:49.996Z,83.71
2023-01-17T01:14:36.885Z,83.71
2023-01-17T01:17:23.717Z,83.41
2023-01-17T01:20:10.464Z,83.47
2023-01-17T01:22:56.990Z,84.35
2023-01-17T01:25:43.359Z,84.00
2023-01-17T01:28:32.061Z,83.88
2023-01-17T01:31:22.286Z,83.75
2023-01-17T01:33:53.913Z,84.00
2023-01-17T01:36:21.979Z,83.91
2023-01-17T01:38:50.511Z,84.25
2023-01-17T01:41:18.780Z,83.81
2023-01-17T01:43:52.155Z,83.81
2023-01-17T01:46:39.391Z,84.35
2023-01-17T01:49:19.551Z,86.46
2023-01-17T01:51:56.109Z,87.39
2023-01-17T01:54:28.791Z,87.90
2023-01-17T01:56:59.457Z,88.04
2023-01-17T01:59:28.184Z,89.58
2023-01-17T02:01:58.429Z,89.48
2023-01-17T02:04:28.624Z,89.10
2023-01-17T02:07:04.219Z,89.10
2023-01-17T02:09:32.350Z,89.15
2023-01-17T02:12:00.709Z,89.35
2023-01-17T02:14:28.965Z,89.06
2023-01-17T02:17:40.229Z,89.15
2023-01-17T02:20:35.583Z,87.96
2023-01-17T02:23:24.492Z,87.86
2023-01-17T02:26:10.876Z,87.71
2023-01-17T02:29:18.151Z,88.15
2023-01-17T02:31:58.442Z,88.15
2023-01-17T02:34:51.859Z,88.37
2023-01-17T02:37:27.208Z,88.82
2023-01-17T02:40:30.529Z,88.63
2023-01-17T02:43:05.827Z,88.64
2023-01-17T02:45:33.748Z,88.36
2023-01-17T02:48:01.662Z,89.04
2023-01-17T02:51:00.368Z,89.00
2023-01-17T02:53:31.294Z,89.20
2023-01-17T02:59:52.283Z,89.66
2023-01-17T03:02:46.413Z,89.72
2023-01-17T03:05:21.344Z,89.93
2023-01-17T03:07:51.345Z,90.12
2023-01-17T03:10:20.637Z,90.12
2023-01-17T03:12:48.459Z,90.23
2023-01-17T03:15:17.852Z,90.08
2023-01-17T03:17:50.195Z,89.57
2023-01-17T03:20:22.577Z,89.97
2023-01-17T03:22:50.803Z,89.62
2023-01-17T03:25:21.701Z,89.42
2023-01-17T03:27:49.706Z,88.76
2023-01-17T03:30:18.045Z,88.99
2023-01-17T03:32:45.986Z,88.47
2023-01-17T03:35:13.960Z,88.26
2023-01-17T03:37:43.276Z,89.76
2023-01-17T03:40:11.528Z,90.99
2023-01-17T03:42:40.074Z,91.49
2023-01-17T03:45:08.559Z,91.02
2023-01-17T03:47:36.724Z,91.83
2023-01-17T03:50:05.740Z,92.48
2023-01-17T03:52:33.775Z,93.24
2023-01-17T03:55:02.848Z,93.27
2023-01-17T03:57:30.655Z,93.40
2023-01-17T03:59:58.710Z,93.77
2023-01-17T04:02:26.614Z,93.59
2023-01-17T04:04:54.894Z,94.30
2023-01-17T04:07:23.263Z,93.71
2023-01-17T04:09:51.323Z,93.87
2023-01-17T04:12:19.352Z,94.09
2023-01-17T04:14:48.387Z,93.98
2023-01-17T04:17:18.970Z,93.36
2023-01-17T04:19:47.718Z,92.89
2023-01-17T04:22:15.722Z,93.13
2023-01-17T04:24:43.818Z,92.65
2023-01-17T04:27:14.472Z,92.98
2023-01-17T04:29:42.622Z,92.85
2023-01-17T04:32:10.688Z,92.50
2023-01-17T04:34:38.686Z,92.86
2023-01-17T04:37:06.644Z,92.80
2023-01-17T04:39:34.539Z,93.46
2023-01-17T04:42:03.183Z,93.46
2023-01-17T04:44:31.103Z,93.59
2023-01-17T04:46:59.039Z,94.04
2023-01-17T04:49:26.827Z,94.11
2023-01-17T04:51:54.866Z,94.41
2023-01-17T04:54:22.854Z,93.90
2023-01-17T04:56:50.675Z,94.38
2023-01-17T04:59:18.737Z,93.74
2023-01-17T05:01:49.691Z,92.97
2023-01-17T05:04:17.839Z,93.69
2023-01-17T05:06:45.801Z,93.28
2023-01-17T05:09:13.744Z,93.64
2023-01-17T05:11:41.656Z,94.00
2023-01-17T05:14:11.007Z,93.31
2023-01-17T05:16:38.956Z,93.61
2023-01-17T05:19:06.952Z,92.88
2023-01-17T05:21:35.018Z,92.24
2023-01-17T05:24:02.922Z,92.15
2023-01-17T05:26:31.144Z,92.42
2023-01-17T05:28:59.018Z,91.63
2023-01-17T05:31:27.069Z,91.63
2023-01-17T05:33:55.018Z,92.20
2023-01-17T05:36:22.846Z,91.92
2023-01-17T05:38:50.766Z,92.63
2023-01-17T05:41:18.677Z,92.95
2023-01-17T05:43:46.873Z,92.68
2023-01-17T05:46:16.429Z,92.52
2023-01-17T05:48:44.470Z,92.42
2023-01-17T05:51:12.454Z,92.47
2023-01-17T05:53:40.471Z,92.01
2023-01-17T05:56:08.421Z,92.10
2023-01-17T05:58:36.480Z,91.74
2023-01-17T06:01:04.428Z,91.50
2023-01-17T06:03:32.364Z,91.77
2023-01-17T06:06:00.336Z,91.62
2023-01-17T06:08:28.363Z,91.70
2023-01-17T06:10:59.664Z,91.14
2023-01-17T06:13:27.655Z,91.68
2023-01-17T06:15:57.924Z,92.56
2023-01-17T06:18:26.027Z,92.13
2023-01-17T06:20:55.349Z,92.13
2023-01-17T06:23:24.125Z,92.03
2023-01-17T06:25:52.343Z,92.40
2023-01-17T06:28:22.944Z,92.56
2023-01-17T06:30:53.725Z,92.35
2023-01-17T06:33:21.696Z,92.51
2023-01-17T06:35:51.537Z,92.02
2023-01-17T06:38:20.150Z,91.72
2023-01-17T06:40:48.292Z,91.41
2023-01-17T06:43:16.436Z,90.84
2023-01-17T06:45:44.380Z,90.64
2023-01-17T06:48:12.408Z,90.56
2023-01-17T06:50:40.440Z,90.70
2023-01-17T06:53:08.385Z,90.58
2023-01-17T06:55:39.806Z,90.09
2023-01-17T06:58:09.569Z,90.27
2023-01-17T07:00:40.284Z,90.61
2023-01-17T07:03:21.020Z,90.01
2023-01-17T07:05:49.464Z,89.61
2023-01-17T07:08:18.697Z,88.57
2023-01-17T07:10:48.898Z,88.06
2023-01-17T07:13:17.065Z,87.54
2023-01-17T07:15:44.992Z,86.79
2023-01-17T07:18:13.358Z,86.10
2023-01-17T07:20:44.214Z,86.03
2023-01-17T07:23:12.557Z,85.59
2023-01-17T07:25:40.580Z,84.88
2023-01-17T07:28:09.165Z,84.58
2023-01-17T07:30:37.068Z,84.03
2023-01-17T07:33:05.740Z,83.94
2023-01-17T07:35:34.415Z,83.71
2023-01-17T07:38:02.475Z,83.01
2023-01-17T07:40:30.817Z,83.69
2023-01-17T07:43:02.621Z,83.97
2023-01-17T07:45:32.436Z,82.87
2023-01-17T07:48:00.658Z,82.37
2023-01-17T07:50:28.541Z,82.06
2023-01-17T07:52:56.659Z,81.45
2023-01-17T07:55:24.572Z,81.09
2023-01-17T07:57:52.491Z,81.67
2023-01-17T08:00:21.617Z,82.01
2023-01-17T08:02:49.991Z,82.08
2023-01-17T08:05:18.062Z,82.80
2023-01-17T08:07:45.935Z,81.35
2023-01-17T08:10:18.196Z,81.03
2023-01-17T08:12:48.264Z,81.37
2023-01-17T08:15:18.022Z,80.13
2023-01-17T08:17:49.947Z,80.89
2023-01-17T08:20:18.117Z,80.89
2023-01-17T08:22:46.145Z,80.16
2023-01-17T08:25:14.200Z,80.59
2023-01-17T08:27:42.149Z,79.55
2023-01-17T08:30:10.927Z,79.91
2023-01-17T08:32:41.507Z,78.45
2023-01-17T08:35:10.487Z,78.15
2023-01-17T08:37:39.320Z,76.72
2023-01-17T08:40:09.028Z,75.55
2023-01-17T08:42:40.410Z,75.26
2023-01-17T08:45:10.273Z,74.76
2023-01-17T08:47:38.373Z,73.07
2023-01-17T08:50:07.227Z,72.17
2023-01-17T08:52:35.253Z,71.74
2023-01-17T08:55:03.869Z,72.84
2023-01-17T08:57:33.083Z,72.34
2023-01-17T09:00:00.783Z,71.54
2023-01-17T09:02:28.631Z,71.78
2023-01-17T09:04:56.397Z,72.66
2023-01-17T09:07:25.394Z,71.22
2023-01-17T09:09:53.866Z,69.56
2023-01-17T09:12:22.709Z,68.57
2023-01-17T09:14:50.662Z,68.33
2023-01-17T09:17:18.328Z,67.88
2023-01-17T09:19:47.718Z,67.16
2023-01-17T09:22:15.956Z,66.31
2023-01-17T09:24:44.336Z,65.44
2023-01-17T09:27:12.263Z,65.22
2023-01-17T09:29:40.260Z,64.84
2023-01-17T09:32:08.219Z,64.33
2023-01-17T09:34:36.140Z,64.30
2023-01-17T09:37:04.362Z,63.07
2023-01-17T09:39:32.227Z,63.34
2023-01-17T09:42:00.117Z,62.60
2023-01-17T09:44:35.867Z,61.82
2023-01-17T09:47:16.455Z,61.07
2023-01-17T09:49:48.060Z,60.32
2023-01-17T09:52:21.301Z,60.49
2023-01-17T09:54:51.102Z,60.42
2023-01-17T09:57:46.807Z,59.60
2023-01-17T10:00:49.888Z,60.75
2023-01-17T10:03:26.875Z,59.75
2023-01-17T10:06:27.975Z,59.48
2023-01-17T10:09:40.410Z,59.29
2023-01-17T10:12:18.896Z,59.24
2023-01-17T10:15:07.409Z,58.96
2023-01-17T10:18:06.541Z,59.95
2023-01-17T10:20:49.809Z,60.27
2023-01-17T10:23:31.034Z,59.07
2023-01-17T10:26:05.146Z,59.39
2023-01-17T10:28:41.041Z,59.46
2023-01-17T10:31:16.838Z,60.73
2023-01-17T10:34:12.171Z,61.21
2023-01-17T10:36:44.943Z,62.76
2023-01-17T10:39:24.642Z,62.93
2023-01-17T10:41:56.799Z,63.10
2023-01-17T10:44:59.585Z,64.05
2023-01-17T10:47:33.465Z,64.17
2023-01-17T10:50:05.404Z,64.45
2023-01-17T10:52:53.138Z,64.71
2023-01-17T10:55:39.210Z,63.50
2023-01-17T10:58:12.696Z,65.23
2023-01-17T11:00:45.612Z,65.90
2023-01-17T11:03:16.494Z,65.93
2023-01-17T11:05:44.654Z,66.53
2023-01-17T11:08:15.839Z,66.15
2023-01-17T11:10:47.487Z,65.28
2023-01-17T11:13:24.118Z,64.49
2023-01-17T11:15:57.895Z,64.48
2023-01-17T11:18:29.876Z,63.64
2023-01-17T11:21:16.185Z,63.77
2023-01-17T11:23:47.073Z,63.49
2023-01-17T11:26:26.406Z,62.34
2023-01-17T11:29:26.143Z,60.20
2023-01-17T11:31:58.793Z,60.61
2023-01-17T11:34:32.279Z,59.68
2023-01-17T11:37:18.679Z,59.41
2023-01-17T11:39:50.313Z,59.49
2023-01-17T11:42:33.886Z,60.60
2023-01-17T11:45:38.005Z,61.07
2023-01-17T11:48:09.014Z,60.23
2023-01-17T11:50:46.772Z,60.15
2023-01-17T11:53:28.239Z,59.16
2023-01-17T11:56:06.219Z,60.44
2023-01-17T11:58:41.407Z,60.88
2023-01-17T12:01:23.211Z,61.35
2023-01-17T12:04:24.438Z,61.03
2023-01-17T12:07:04.514Z,61.02
2023-01-17T12:09:48.135Z,59.89
2023-01-17T12:12:42.548Z,59.84
2023-01-17T12:15:22.669Z,59.68
2023-01-17T12:18:12.149Z,58.98
2023-01-17T12:20:41.726Z,57.51
2023-01-17T12:23:34.042Z,56.79
2023-01-17T12:26:07.962Z,56.93
2023-01-17T12:29:04.842Z,56.57
2023-01-17T12:31:54.337Z,56.81
2023-01-17T12:34:32.376Z,56.54
2023-01-17T12:37:18.275Z,55.83
2023-01-17T12:40:18.142Z,53.95
2023-01-17T12:43:26.890Z,51.02
2023-01-17T12:45:54.940Z,52.00
2023-01-17T12:48:29.578Z,52.53
2023-01-17T12:51:05.274Z,52.76
2023-01-17T12:53:51.870Z,53.15
2023-01-17T12:56:29.941Z,53.05
2023-01-17T12:59:12.800Z,53.90
2023-01-17T13:01:57.743Z,54.12
2023-01-17T13:04:57.737Z,55.04
2023-01-17T13:08:08.879Z,55.09
2023-01-17T13:11:04.271Z,55.38
2023-01-17T13:13:33.443Z,55.62
2023-01-17T13:16:11.992Z,55.08
2023-01-17T13:18:46.653Z,55.82
2023-01-17T13:21:32.331Z,56.46
2023-01-17T13:24:02.305Z,57.70
2023-01-17T13:26:36.805Z,59.21
2023-01-17T13:29:43.489Z,60.64
2023-01-17T13:32:23.479Z,62.59
2023-01-17T13:35:12.587Z,63.62
2023-01-17T13:37:59.083Z,66.12
2023-01-17T13:40:52.963Z,66.88
2023-01-17T13:43:27.882Z,67.13
2023-01-17T13:46:00.036Z,68.25
2023-01-17T13:48:41.118Z,69.07
2023-01-17T13:51:10.446Z,69.73
2023-01-17T13:53:41.231Z,70.41
2023-01-17T13:56:29.588Z,70.86
2023-01-17T13:59:03.439Z,71.48
2023-01-17T14:01:38.754Z,71.39
2023-01-17T14:04:12.138Z,72.05
2023-01-17T14:06:44.799Z,72.22
2023-01-17T14:09:27.844Z,72.59
2023-01-17T14:12:24.874Z,72.77
2023-01-17T14:14:55.931Z,72.68
2023-01-17T14:17:25.836Z,73.15
2023-01-17T14:19:58.401Z,72.97
2023-01-17T14:22:41.826Z,72.94
2023-01-17T14:25:15.196Z,73.54
2023-01-17T14:27:43.216Z,73.46
2023-01-17T14:30:17.908Z,73.41
2023-01-17T14:33:09.079Z,73.84
2023-01-17T14:35:49.739Z,74.11
2023-01-17T14:38:23.925Z,73.95
2023-01-17T14:40:55.825Z,73.94
2023-01-17T14:43:26.842Z,73.59
2023-01-17T14:46:04.401Z,73.32
2023-01-17T14:48:32.489Z,73.02
2023-01-17T14:51:01.393Z,72.90
2023-01-17T14:53:33.610Z,72.84
2023-01-17T14:56:17.116Z,72.47
2023-01-17T14:58:46.852Z,72.03
2023-01-17T15:01:20.236Z,72.07
2023-01-17T15:03:58.562Z,71.54
2023-01-17T15:06:46.822Z,71.74
2023-01-17T15:09:23.008Z,72.52
2023-01-17T15:11:53.594Z,72.07
2023-01-17T15:14:38.146Z,72.25
2023-01-17T15:17:26.637Z,72.46
2023-01-17T15:19:59.845Z,72.24
2023-01-17T15:22:30.060Z,72.32
2023-01-17T15:27:41.845Z,72.03
2023-01-17T15:52:27.444Z,72.71
2023-01-17T15:57:56.169Z,72.97
2023-01-17T16:00:38.005Z,73.23
2023-01-17T16:03:25.876Z,73.07
2023-01-17T16:05:57.204Z,72.96
2023-01-17T16:08:40.318Z,73.17
2023-01-17T16:11:11.916Z,73.27
2023-01-17T16:13:42.646Z,73.15
2023-01-17T16:16:12.254Z,73.66
2023-01-17T16:18:41.493Z,73.93
2023-01-17T16:21:17.430Z,73.83
2023-01-17T16:23:46.527Z,74.13
2023-01-17T16:26:15.840Z,74.85
2023-01-17T16:28:44.247Z,74.75
2023-01-17T16:31:12.725Z,74.85
2023-01-17T16:33:42.294Z,74.73
2023-01-17T16:36:15.508Z,75.12
2023-01-17T16:38:45.584Z,75.28
2023-01-17T16:41:13.703Z,75.83
2023-01-17T16:43:42.141Z,75.51
2023-01-17T16:46:12.491Z,75.41
2023-01-17T16:48:41.020Z,76.09
2023-01-17T16:51:09.582Z,75.88
2023-01-17T16:53:38.994Z,75.76
2023-01-17T16:56:17.480Z,76.33
2023-01-17T16:58:48.279Z,76.48
2023-01-17T17:01:21.231Z,76.38
2023-01-17T17:03:49.932Z,76.01
2023-01-17T17:06:18.555Z,75.74
2023-01-17T17:08:47.847Z,75.97
2023-01-17T17:11:23.185Z,75.62
2023-01-17T17:13:52.440Z,74.91
2023-01-17T17:16:24.503Z,75.35
2023-01-17T17:18:59.178Z,75.47
2023-01-17T17:21:29.407Z,74.91
2023-01-17T17:24:00.391Z,75.22
2023-01-17T17:26:32.652Z,75.37
2023-01-17T17:29:02.174Z,75.56
2023-01-17T17:31:30.589Z,75.60
2023-01-17T17:34:01.622Z,76.42
2023-01-17T17:36:30.602Z,76.39
2023-01-17T17:38:59.546Z,76.51
2023-01-17T17:41:36.272Z,77.38
2023-01-17T17:44:05.486Z,78.35
2023-01-17T17:46:34.165Z,79.00
2023-01-17T17:49:02.634Z,78.54
2023-01-17T17:51:36.544Z,78.51
2023-01-17T17:54:07.668Z,78.99
2023-01-17T17:56:38.143Z,78.43
2023-01-17T17:59:09.439Z,78.68
2023-01-17T18:01:41.505Z,79.77
2023-01-17T18:04:10.147Z,79.33
2023-01-17T18:06:39.696Z,79.42
2023-01-17T18:09:10.216Z,79.07
2023-01-17T18:11:42.987Z,79.71
2023-01-17T18:14:14.902Z,79.16
2023-01-17T18:16:45.221Z,78.95
2023-01-17T18:19:24.377Z,78.42
2023-01-17T18:21:54.178Z,78.19
2023-01-17T18:24:24.333Z,78.47
2023-01-17T18:26:56.268Z,78.05
2023-01-17T18:29:26.360Z,77.98
2023-01-17T18:31:55.447Z,77.76
2023-01-17T18:34:30.269Z,77.73
2023-01-17T18:36:59.119Z,77.81
2023-01-17T18:39:29.880Z,78.00
2023-01-17T18:41:59.053Z,79.57
2023-01-17T18:44:27.866Z,79.34
2023-01-17T18:47:04.876Z,79.00
2023-01-17T18:49:34.401Z,78.67
2023-01-17T18:52:02.694Z,79.00
2023-01-17T18:54:32.362Z,79.40
2023-01-17T18:57:00.650Z,78.89
2023-01-17T18:59:29.342Z,78.48
2023-01-17T19:01:59.205Z,79.61
2023-01-17T19:04:28.942Z,83.09
2023-01-17T19:06:57.090Z,84.52
2023-01-17T19:09:25.206Z,84.40
2023-01-17T19:11:53.194Z,84.47
2023-01-17T19:14:21.240Z,84.43
2023-01-17T19:16:49.179Z,83.00
2023-01-17T19:19:17.079Z,82.47
2023-01-17T19:21:45.081Z,83.06
2023-01-17T19:24:13.478Z,82.05
2023-01-17T19:26:42.411Z,82.14
2023-01-17T19:29:10.702Z,82.22
2023-01-17T19:31:43.139Z,81.93
2023-01-17T19:34:14.098Z,82.31
2023-01-17T19:36:42.818Z,82.25
2023-01-17T19:39:11.099Z,82.50
2023-01-17T19:41:44.019Z,82.63
2023-01-17T19:44:13.833Z,83.29
2023-01-17T19:46:41.939Z,82.91
2023-01-17T19:49:10.098Z,82.79
2023-01-17T19:51:39.882Z,82.28
2023-01-17T19:54:08.598Z,81.95
2023-01-17T19:56:36.983Z,82.36
2023-01-17T19:59:05.055Z,82.44
2023-01-17T20:01:34.507Z,82.51
2023-01-17T20:04:03.735Z,81.63
2023-01-17T20:06:34.835Z,81.56
2023-01-17T20:09:04.808Z,81.62
2023-01-17T20:11:33.120Z,81.25
2023-01-17T20:14:01.154Z,80.95
2023-01-17T20:16:31.219Z,81.28
2023-01-17T20:19:00.458Z,81.68
2023-01-17T20:21:30.576Z,81.71
2023-01-17T20:24:00.304Z,82.61
2023-01-17T20:26:35.023Z,82.08
2023-01-17T20:29:10.787Z,83.73
2023-01-17T20:31:41.751Z,84.52
2023-01-17T20:34:13.076Z,83.68
2023-01-17T20:36:42.303Z,83.72
2023-01-17T20:39:11.348Z,84.30
2023-01-17T20:41:45.070Z,83.78
2023-01-17T20:44:15.672Z,83.23
2023-01-17T20:46:44.588Z,83.88
2023-01-17T20:49:19.186Z,84.34
2023-01-17T20:51:48.453Z,83.76
2023-01-17T20:54:18.622Z,84.50
2023-01-17T20:59:40.494Z,85.95
2023-01-17T21:04:52.561Z,86.93
2023-01-17T21:07:20.999Z,87.54
2023-01-17T21:09:49.376Z,86.81
2023-01-17T21:12:17.791Z,86.64
2023-01-17T21:14:45.756Z,87.56
2023-01-17T21:17:16.494Z,87.21
2023-01-17T21:19:44.557Z,86.49
2023-01-17T21:22:16.955Z,86.09
2023-01-17T21:24:44.860Z,85.36
2023-01-17T21:27:13.326Z,85.67
2023-01-17T21:29:41.805Z,84.31
2023-01-17T21:32:10.985Z,85.04
2023-01-17T21:34:39.447Z,83.05
2023-01-17T21:37:07.689Z,81.88
2023-01-17T21:39:35.926Z,81.35
2023-01-17T21:42:03.984Z,81.05
2023-01-17T21:44:36.486Z,81.20
2023-01-17T21:47:04.673Z,79.63
2023-01-17T21:49:32.796Z,76.55
2023-01-17T21:52:00.829Z,75.02
2023-01-17T21:54:49.116Z,75.27
2023-01-17T21:57:38.890Z,75.30
2023-01-17T22:00:10.815Z,75.37
2023-01-17T22:02:45.088Z,75.25
2023-01-17T22:05:14.414Z,74.71
2023-01-17T22:08:01.244Z,74.71
2023-01-17T22:10:29.645Z,73.96
2023-01-17T22:12:57.637Z,73.37
2023-01-17T22:15:25.970Z,73.75
2023-01-17T22:17:54.275Z,73.91
2023-01-17T22:20:22.479Z,73.44
2023-01-17T22:22:50.502Z,73.57
2023-01-17T22:25:18.411Z,73.12
2023-01-17T22:27:46.413Z,73.22
2023-01-17T22:30:14.537Z,73.48
2023-01-17T22:32:42.591Z,72.70
2023-01-17T22:35:10.460Z,73.56
2023-01-17T22:37:38.474Z,73.04
2023-01-17T22:40:07.190Z,73.81
2023-01-17T22:42:35.251Z,73.64
2023-01-17T22:45:03.442Z,73.43
2023-01-17T22:47:33.299Z,73.40
2023-01-17T22:50:01.147Z,73.10
2023-01-17T22:52:29.312Z,73.96
2023-01-17T22:54:57.237Z,73.35
2023-01-17T22:57:25.228Z,73.75
2023-01-17T22:59:53.273Z,74.44
2023-01-17T23:02:21.461Z,73.95
2023-01-17T23:04:49.505Z,73.63
2023-01-17T23:07:17.791Z,73.66
2023-01-17T23:09:45.830Z,74.00
2023-01-17T23:12:13.635Z,74.02
2023-01-17T23:15:03.358Z,73.32
2023-01-17T23:17:49.854Z,73.85
2023-01-17T23:20:17.689Z,73.38
2023-01-17T23:22:45.646Z,72.99
2023-01-17T23:25:14.380Z,72.85
2023-01-17T23:28:05.916Z,73.06
2023-01-17T23:30:36.993Z,73.14
2023-01-17T23:33:10.406Z,72.06
2023-01-17T23:35:43.406Z,71.71
2023-01-17T23:38:30.984Z,71.12
2023-01-17T23:41:23.011Z,71.35
2023-01-17T23:43:55.582Z,71.30
2023-01-17T23:46:25.557Z,70.78
2023-01-17T23:48:55.228Z,71.94
2023-01-17T23:51:23.201Z,70.16
2023-01-17T23:53:55.351Z,71.28
2023-01-17T23:56:27.157Z,71.41
2023-01-17T23:58:54.825Z,67.22
